createdAt,value
2023-03-29T00:00:36.809Z,2.10
2023-03-29T00:02:01.818Z,2.05
2023-03-29T00:03:26.289Z,1.98
2023-03-29T00:04:48.714Z,2.38
2023-03-29T00:06:15.081Z,1.90
2023-03-29T00:07:38.452Z,2.05
2023-03-29T00:09:06.098Z,1.90
2023-03-29T00:10:29.220Z,2.53
2023-03-29T00:11:52.632Z,1.77
2023-03-29T00:13:16.199Z,1.90
2023-03-29T00:14:41.241Z,1.85
2023-03-29T00:16:03.733Z,2.00
2023-03-29T00:17:28.646Z,2.03
2023-03-29T00:18:52.040Z,1.67
2023-03-29T00:20:16.678Z,1.83
2023-03-29T00:21:39.122Z,1.73
2023-03-29T00:23:02.526Z,2.50
2023-03-29T00:24:25.987Z,1.90
2023-03-29T00:25:48.482Z,1.80
2023-03-29T00:27:11.910Z,1.85
2023-03-29T00:28:34.364Z,1.65
2023-03-29T00:29:57.946Z,2.17
2023-03-29T00:31:21.565Z,1.88
2023-03-29T00:32:46.963Z,1.83
2023-03-29T00:34:10.593Z,1.50
2023-03-29T00:35:33.982Z,1.70
2023-03-29T00:36:58.737Z,1.60
2023-03-29T00:38:21.161Z,2.20
2023-03-29T00:39:45.277Z,1.88
2023-03-29T00:41:10.561Z,1.83
2023-03-29T00:42:34.083Z,1.65
2023-03-29T00:43:59.048Z,2.25
2023-03-29T00:45:25.200Z,1.38
2023-03-29T00:46:48.643Z,1.60
2023-03-29T00:48:16.313Z,2.17
2023-03-29T00:49:38.760Z,1.70
2023-03-29T00:51:05.395Z,2.03
2023-03-29T00:52:30.283Z,1.95
2023-03-29T00:53:56.933Z,1.80
2023-03-29T00:55:23.745Z,1.60
2023-03-29T00:56:51.018Z,1.63
2023-03-29T00:58:16.041Z,2.50
2023-03-29T00:59:40.953Z,1.75
2023-03-29T01:01:08.764Z,2.17
2023-03-29T01:02:34.915Z,1.70
2023-03-29T01:04:04.226Z,1.92
2023-03-29T01:05:32.361Z,2.13
2023-03-29T01:06:58.320Z,1.77
2023-03-29T01:08:25.681Z,2.22
2023-03-29T01:09:54.148Z,1.25
2023-03-29T01:11:19.924Z,2.13
2023-03-29T01:12:46.769Z,1.67
2023-03-29T01:14:15.356Z,2.10
2023-03-29T01:15:38.917Z,1.88
2023-03-29T01:17:03.126Z,2.22
2023-03-29T01:18:26.704Z,1.88
2023-03-29T01:19:53.789Z,2.28
2023-03-29T01:21:24.444Z,2.00
2023-03-29T01:23:01.554Z,2.30
2023-03-29T01:24:45.537Z,1.85
2023-03-29T01:26:14.624Z,2.13
2023-03-29T01:27:50.886Z,1.60
2023-03-29T01:29:16.561Z,1.45
2023-03-29T01:30:43.708Z,1.75
2023-03-29T01:32:10.424Z,1.70
2023-03-29T01:33:38.108Z,2.00
2023-03-29T01:35:03.701Z,1.75
2023-03-29T01:36:29.423Z,1.45
2023-03-29T01:37:57.083Z,1.55
2023-03-29T01:39:21.976Z,1.45
2023-03-29T01:40:45.409Z,1.92
2023-03-29T01:42:21.700Z,1.80
2023-03-29T01:43:51.313Z,1.95
2023-03-29T01:45:22.896Z,1.85
2023-03-29T01:46:47.145Z,2.20
2023-03-29T01:48:14.283Z,2.05
2023-03-29T01:49:42.125Z,2.13
2023-03-29T01:51:07.549Z,1.80
2023-03-29T01:52:36.160Z,2.03
2023-03-29T01:54:01.708Z,1.98
2023-03-29T01:55:28.591Z,1.55
2023-03-29T01:56:51.426Z,1.73
2023-03-29T01:58:15.523Z,1.65
2023-03-29T01:59:42.301Z,2.05
2023-03-29T02:01:10.403Z,2.10
2023-03-29T02:02:33.428Z,1.52
2023-03-29T02:04:06.226Z,1.65
2023-03-29T02:05:30.624Z,2.42
2023-03-29T02:06:56.409Z,1.77
2023-03-29T02:08:19.315Z,1.40
2023-03-29T02:09:44.255Z,1.92
2023-03-29T02:11:08.556Z,2.10
2023-03-29T02:12:31.127Z,1.83
2023-03-29T02:13:54.761Z,1.70
2023-03-29T02:15:21.529Z,1.50
2023-03-29T02:16:46.274Z,1.83
2023-03-29T02:18:09.897Z,1.52
2023-03-29T02:19:34.340Z,1.85
2023-03-29T02:21:01.434Z,1.75
2023-03-29T02:22:27.706Z,1.88
2023-03-29T02:23:50.334Z,1.63
2023-03-29T02:25:13.818Z,2.25
2023-03-29T02:26:37.383Z,1.42
2023-03-29T02:28:01.493Z,1.75
2023-03-29T02:29:24.919Z,1.73
2023-03-29T02:30:59.795Z,1.70
2023-03-29T02:32:28.203Z,1.75
2023-03-29T02:33:53.436Z,1.58
2023-03-29T02:35:21.392Z,1.70
2023-03-29T02:36:47.791Z,1.70
2023-03-29T02:38:11.683Z,1.77
2023-03-29T02:39:34.717Z,1.92
2023-03-29T02:40:58.802Z,2.15
2023-03-29T02:42:21.679Z,2.05
2023-03-29T02:43:46.167Z,1.85
2023-03-29T02:45:11.386Z,1.65
2023-03-29T02:46:37.918Z,1.70
2023-03-29T02:48:04.908Z,1.80
2023-03-29T02:49:28.624Z,1.85
2023-03-29T02:50:53.860Z,1.38
2023-03-29T02:52:18.948Z,1.92
2023-03-29T02:53:44.668Z,1.65
2023-03-29T02:55:12.409Z,2.00
2023-03-29T02:56:44.894Z,2.33
2023-03-29T02:58:09.204Z,1.75
2023-03-29T02:59:33.363Z,1.98
2023-03-29T03:00:58.646Z,1.75
2023-03-29T03:02:22.558Z,1.80
2023-03-29T03:03:45.993Z,1.80
2023-03-29T03:05:10.149Z,1.65
2023-03-29T03:06:33.555Z,1.75
2023-03-29T03:07:56.212Z,1.73
2023-03-29T03:09:19.720Z,2.15
2023-03-29T03:10:42.550Z,1.88
2023-03-29T03:12:06.295Z,1.70
2023-03-29T03:13:29.970Z,1.95
2023-03-29T03:14:52.376Z,1.73
2023-03-29T03:16:22.653Z,2.50
2023-03-29T03:17:47.437Z,1.63
2023-03-29T03:19:11.422Z,1.83
2023-03-29T03:20:34.700Z,2.20
2023-03-29T03:21:58.277Z,2.22
2023-03-29T03:23:23.327Z,2.00
2023-03-29T03:24:46.746Z,2.55
2023-03-29T03:26:10.730Z,1.70
2023-03-29T03:27:34.005Z,1.75
2023-03-29T03:28:58.406Z,1.90
2023-03-29T03:30:22.138Z,1.73
2023-03-29T03:31:44.642Z,2.30
2023-03-29T03:33:09.516Z,1.83
2023-03-29T03:34:31.948Z,2.78
2023-03-29T03:35:57.221Z,2.13
2023-03-29T03:37:20.735Z,1.80
2023-03-29T03:38:44.284Z,1.10
2023-03-29T03:40:11.993Z,2.30
2023-03-29T03:41:35.945Z,1.85
2023-03-29T03:42:59.603Z,1.50
2023-03-29T03:44:23.400Z,1.92
2023-03-29T03:45:47.172Z,1.98
2023-03-29T03:47:09.670Z,1.88
2023-03-29T03:48:34.455Z,1.83
2023-03-29T03:49:57.386Z,2.42
2023-03-29T03:51:20.815Z,2.35
2023-03-29T03:52:44.191Z,1.83
2023-03-29T03:54:08.087Z,2.40
2023-03-29T03:55:33.411Z,1.95
2023-03-29T03:56:55.917Z,2.05
2023-03-29T03:58:19.752Z,2.08
2023-03-29T03:59:43.151Z,1.90
2023-03-29T04:01:08.347Z,2.17
2023-03-29T04:02:33.705Z,2.08
2023-03-29T04:03:58.762Z,1.85
2023-03-29T04:05:21.224Z,2.50
2023-03-29T04:06:45.104Z,2.58
2023-03-29T04:08:09.873Z,2.83
2023-03-29T04:09:34.158Z,2.33
2023-03-29T04:10:59.113Z,2.10
2023-03-29T04:12:22.857Z,2.60
2023-03-29T04:13:47.207Z,2.15
2023-03-29T04:15:10.570Z,2.20
2023-03-29T04:16:34.117Z,2.97
2023-03-29T04:17:58.288Z,2.03
2023-03-29T04:19:22.942Z,2.53
2023-03-29T04:20:47.158Z,2.28
2023-03-29T04:22:09.678Z,2.20
2023-03-29T04:23:33.063Z,2.15
2023-03-29T04:24:56.529Z,2.13
2023-03-29T04:26:19.932Z,3.00
2023-03-29T04:27:43.302Z,2.30
2023-03-29T04:29:07.094Z,2.35
2023-03-29T04:30:30.332Z,2.70
2023-03-29T04:31:53.724Z,2.53
2023-03-29T04:33:17.340Z,3.10
2023-03-29T04:34:42.226Z,2.83
2023-03-29T04:36:07.575Z,2.22
2023-03-29T04:37:31.197Z,2.83
2023-03-29T04:38:54.596Z,3.13
2023-03-29T04:40:19.376Z,2.80
2023-03-29T04:41:44.121Z,3.13
2023-03-29T04:43:07.615Z,2.97
2023-03-29T04:44:33.404Z,2.25
2023-03-29T04:45:57.820Z,2.38
2023-03-29T04:47:21.341Z,2.92
2023-03-29T04:48:43.758Z,3.10
2023-03-29T04:50:10.013Z,3.08
2023-03-29T04:51:33.516Z,2.80
2023-03-29T04:52:57.238Z,2.85
2023-03-29T04:54:20.768Z,3.13
2023-03-29T04:55:44.222Z,3.25
2023-03-29T04:57:07.746Z,3.00
2023-03-29T04:58:32.549Z,3.50
2023-03-29T04:59:56.339Z,2.92
2023-03-29T05:01:19.834Z,3.22
2023-03-29T05:02:44.171Z,3.22
2023-03-29T05:04:08.234Z,2.95
2023-03-29T05:05:34.135Z,2.50
2023-03-29T05:06:57.760Z,3.25
2023-03-29T05:08:21.506Z,3.30
2023-03-29T05:09:44.921Z,3.47
2023-03-29T05:11:07.826Z,3.40
2023-03-29T05:12:31.436Z,2.92
2023-03-29T05:13:55.885Z,2.45
2023-03-29T05:15:19.374Z,3.05
2023-03-29T05:16:44.151Z,2.60
2023-03-29T05:18:07.668Z,3.05
2023-03-29T05:19:31.972Z,3.08
2023-03-29T05:20:56.904Z,2.92
2023-03-29T05:22:21.543Z,3.10
2023-03-29T05:23:44.990Z,3.50
2023-03-29T05:25:08.625Z,2.47
2023-03-29T05:26:32.688Z,4.00
2023-03-29T05:27:56.069Z,3.63
2023-03-29T05:29:19.610Z,3.20
2023-03-29T05:30:43.528Z,3.22
2023-03-29T05:32:08.720Z,3.30
2023-03-29T05:33:32.469Z,3.38
2023-03-29T05:34:56.133Z,2.80
2023-03-29T05:36:21.395Z,3.13
2023-03-29T05:37:47.287Z,3.25
2023-03-29T05:39:10.892Z,2.85
2023-03-29T05:40:35.725Z,2.63
2023-03-29T05:41:59.402Z,3.72
2023-03-29T05:43:23.804Z,3.05
2023-03-29T05:44:47.164Z,2.83
2023-03-29T05:46:12.225Z,3.03
2023-03-29T05:47:36.053Z,2.97
2023-03-29T05:48:59.680Z,3.17
2023-03-29T05:50:23.353Z,3.08
2023-03-29T05:51:48.144Z,2.42
2023-03-29T05:53:11.509Z,3.10
2023-03-29T05:54:35.140Z,2.78
2023-03-29T05:56:08.663Z,3.33
2023-03-29T05:57:39.043Z,2.95
2023-03-29T05:59:02.449Z,2.65
2023-03-29T06:00:26.753Z,3.00
2023-03-29T06:01:50.193Z,2.10
2023-03-29T06:03:21.232Z,2.58
2023-03-29T06:04:45.650Z,2.45
2023-03-29T06:06:09.670Z,2.92
2023-03-29T06:07:34.469Z,2.47
2023-03-29T06:08:57.888Z,2.55
2023-03-29T06:10:21.461Z,2.67
2023-03-29T06:11:45.251Z,2.28
2023-03-29T06:13:08.855Z,2.92
2023-03-29T06:14:32.632Z,3.15
2023-03-29T06:15:56.322Z,2.42
2023-03-29T06:17:19.154Z,2.30
2023-03-29T06:18:42.732Z,2.65
2023-03-29T06:20:10.955Z,2.72
2023-03-29T06:21:34.479Z,2.40
2023-03-29T06:23:00.033Z,3.00
2023-03-29T06:24:24.958Z,2.47
2023-03-29T06:25:49.790Z,2.45
2023-03-29T06:27:14.346Z,2.35
2023-03-29T06:28:38.654Z,2.22
2023-03-29T06:30:02.060Z,2.72
2023-03-29T06:31:25.540Z,2.90
2023-03-29T06:32:49.816Z,3.08
2023-03-29T06:34:14.592Z,2.58
2023-03-29T06:35:38.885Z,2.60
2023-03-29T06:37:02.386Z,2.63
2023-03-29T06:38:28.682Z,2.15
2023-03-29T06:39:53.845Z,2.63
2023-03-29T06:41:17.307Z,2.17
2023-03-29T06:42:40.798Z,2.15
2023-03-29T06:44:04.966Z,2.35
2023-03-29T06:45:30.186Z,2.75
2023-03-29T06:46:54.124Z,2.85
2023-03-29T06:48:17.601Z,2.50
2023-03-29T06:49:40.971Z,2.30
2023-03-29T06:51:06.072Z,2.35
2023-03-29T06:52:29.716Z,2.30
2023-03-29T06:53:54.528Z,2.50
2023-03-29T06:55:18.586Z,2.33
2023-03-29T06:56:43.175Z,2.63
2023-03-29T06:58:08.177Z,2.60
2023-03-29T06:59:31.637Z,2.50
2023-03-29T07:00:55.111Z,2.42
2023-03-29T07:02:18.529Z,2.40
2023-03-29T07:03:45.352Z,2.30
2023-03-29T07:05:12.068Z,2.45
2023-03-29T07:06:36.535Z,2.38
2023-03-29T07:08:11.286Z,2.13
2023-03-29T07:09:36.479Z,2.72
2023-03-29T07:11:01.506Z,2.65
2023-03-29T07:12:26.381Z,2.00
2023-03-29T07:13:51.154Z,2.38
2023-03-29T07:15:15.477Z,2.60
2023-03-29T07:16:39.028Z,2.78
2023-03-29T07:18:04.864Z,2.33
2023-03-29T07:19:30.225Z,2.08
2023-03-29T07:20:53.688Z,2.45
2023-03-29T07:22:17.085Z,2.70
2023-03-29T07:23:40.649Z,2.85
2023-03-29T07:25:05.909Z,2.83
2023-03-29T07:26:30.616Z,2.40
2023-03-29T07:27:54.224Z,2.40
2023-03-29T07:29:17.965Z,2.90
2023-03-29T07:30:43.797Z,3.15
2023-03-29T07:32:07.268Z,2.17
2023-03-29T07:33:30.804Z,3.15
2023-03-29T07:34:54.459Z,2.83
2023-03-29T07:36:18.958Z,2.45
2023-03-29T07:37:42.809Z,2.65
2023-03-29T07:39:06.881Z,2.08
2023-03-29T07:40:31.721Z,2.40
2023-03-29T07:41:58.472Z,2.22
2023-03-29T07:43:22.099Z,2.20
2023-03-29T07:44:45.868Z,2.30
2023-03-29T07:46:10.186Z,2.30
2023-03-29T07:47:34.571Z,3.92
2023-03-29T07:48:58.244Z,2.78
2023-03-29T07:50:21.631Z,2.30
2023-03-29T07:51:45.434Z,2.15
2023-03-29T07:53:09.174Z,2.47
2023-03-29T07:54:32.952Z,2.88
2023-03-29T07:55:57.713Z,2.40
2023-03-29T07:57:21.104Z,2.72
2023-03-29T07:58:46.299Z,2.50
2023-03-29T08:00:12.705Z,2.13
2023-03-29T08:01:36.611Z,2.70
2023-03-29T08:03:00.757Z,2.30
2023-03-29T08:04:24.584Z,2.17
2023-03-29T08:05:48.195Z,2.13
2023-03-29T08:07:12.635Z,2.60
2023-03-29T08:08:36.564Z,2.88
2023-03-29T08:10:00.128Z,3.00
2023-03-29T08:11:25.604Z,2.88
2023-03-29T08:12:49.959Z,3.00
2023-03-29T08:14:13.456Z,2.20
2023-03-29T08:15:37.937Z,2.65
2023-03-29T08:17:01.525Z,2.45
2023-03-29T08:18:25.397Z,2.58
2023-03-29T08:19:50.803Z,2.55
2023-03-29T08:21:15.853Z,2.28
2023-03-29T08:22:40.368Z,2.45
2023-03-29T08:24:03.860Z,2.03
2023-03-29T08:25:27.661Z,2.47
2023-03-29T08:26:52.493Z,1.88
2023-03-29T08:28:16.071Z,2.70
2023-03-29T08:29:39.438Z,2.50
2023-03-29T08:31:03.103Z,2.42
2023-03-29T08:32:27.083Z,2.55
2023-03-29T08:33:50.765Z,2.35
2023-03-29T08:35:14.199Z,2.03
2023-03-29T08:36:37.676Z,2.50
2023-03-29T08:38:01.104Z,2.35
2023-03-29T08:39:24.794Z,1.80
2023-03-29T08:40:49.804Z,1.95
2023-03-29T08:42:36.744Z,2.10
2023-03-29T08:44:13.229Z,2.15
2023-03-29T08:45:42.829Z,2.20
2023-03-29T08:47:11.755Z,2.03
2023-03-29T08:48:37.174Z,2.17
2023-03-29T08:50:00.860Z,2.05
2023-03-29T08:51:27.010Z,2.00
2023-03-29T08:52:52.837Z,1.90
2023-03-29T08:54:18.905Z,2.30
2023-03-29T08:55:43.846Z,1.85
2023-03-29T08:57:12.050Z,2.22
2023-03-29T08:58:38.454Z,2.00
2023-03-29T09:00:05.540Z,2.05
2023-03-29T09:01:31.854Z,2.17
2023-03-29T09:02:57.436Z,1.88
2023-03-29T09:04:23.430Z,2.35
2023-03-29T09:05:49.771Z,2.28
2023-03-29T09:07:15.218Z,2.67
2023-03-29T09:08:41.359Z,2.30
2023-03-29T09:10:05.645Z,2.38
2023-03-29T09:11:48.034Z,2.50
2023-03-29T09:13:25.486Z,2.65
2023-03-29T09:14:58.940Z,1.90
2023-03-29T09:16:27.222Z,2.50
2023-03-29T09:17:59.351Z,2.35
2023-03-29T09:19:28.295Z,2.00
2023-03-29T09:20:55.400Z,2.70
2023-03-29T09:22:25.402Z,2.60
2023-03-29T09:24:32.754Z,2.60
2023-03-29T09:26:00.747Z,3.08
2023-03-29T09:27:30.858Z,2.55
2023-03-29T09:29:04.497Z,2.58
2023-03-29T09:30:31.753Z,3.42
2023-03-29T09:31:56.320Z,2.75
2023-03-29T09:33:26.925Z,2.15
2023-03-29T09:34:55.985Z,2.60
2023-03-29T09:36:24.734Z,1.85
2023-03-29T09:37:50.253Z,2.30
2023-03-29T09:39:16.275Z,2.50
2023-03-29T09:40:42.627Z,2.22
2023-03-29T09:42:09.013Z,2.63
2023-03-29T09:43:34.010Z,2.28
2023-03-29T09:45:02.044Z,2.60
2023-03-29T09:46:30.254Z,2.42
2023-03-29T09:47:56.946Z,2.67
2023-03-29T09:49:25.272Z,2.58
2023-03-29T09:50:51.258Z,2.63
2023-03-29T09:52:16.863Z,1.92
2023-03-29T09:53:40.260Z,2.53
2023-03-29T09:55:04.146Z,2.47
2023-03-29T09:56:28.139Z,3.35
2023-03-29T09:57:51.580Z,2.42
2023-03-29T09:59:15.024Z,2.25
2023-03-29T10:00:38.549Z,2.22
2023-03-29T10:02:10.161Z,2.58
2023-03-29T10:03:34.944Z,2.95
2023-03-29T10:05:01.582Z,2.38
2023-03-29T10:06:26.872Z,2.10
2023-03-29T10:07:53.723Z,2.47
2023-03-29T10:09:18.949Z,3.35
2023-03-29T10:10:42.544Z,2.42
2023-03-29T10:12:08.047Z,2.63
2023-03-29T10:13:33.949Z,2.83
2023-03-29T10:14:57.467Z,2.25
2023-03-29T10:16:24.267Z,2.45
2023-03-29T10:17:49.488Z,2.90
2023-03-29T10:19:24.420Z,3.97
2023-03-29T10:20:47.845Z,1.95
2023-03-29T10:22:17.992Z,1.90
2023-03-29T10:23:42.155Z,3.05
2023-03-29T10:25:06.298Z,2.47
2023-03-29T10:26:32.686Z,3.50
2023-03-29T10:28:06.021Z,3.45
2023-03-29T10:29:34.928Z,2.58
2023-03-29T10:31:00.677Z,1.98
2023-03-29T10:32:29.514Z,3.10
2023-03-29T10:33:56.553Z,2.70
2023-03-29T10:35:22.845Z,2.55
2023-03-29T10:36:48.162Z,3.22
2023-03-29T10:38:14.933Z,2.28
2023-03-29T10:39:41.578Z,3.40
2023-03-29T10:41:10.280Z,2.60
2023-03-29T10:42:33.684Z,2.83
2023-03-29T10:43:57.384Z,3.20
2023-03-29T10:45:25.863Z,3.45
2023-03-29T10:46:49.249Z,2.83
2023-03-29T10:48:15.135Z,2.85
2023-03-29T10:49:44.192Z,2.63
2023-03-29T10:51:08.346Z,3.22
2023-03-29T10:52:31.727Z,2.08
2023-03-29T10:53:55.379Z,2.15
2023-03-29T10:55:18.678Z,2.70
2023-03-29T10:56:43.879Z,2.30
2023-03-29T10:58:18.086Z,3.40
2023-03-29T10:59:48.328Z,4.10
2023-03-29T11:01:16.258Z,4.28
2023-03-29T11:03:09.163Z,2.60
2023-03-29T11:04:38.911Z,1.77
2023-03-29T11:06:11.039Z,3.05
2023-03-29T11:07:36.426Z,2.70
2023-03-29T11:09:00.914Z,2.92
2023-03-29T11:10:35.690Z,3.30
2023-03-29T11:12:15.722Z,2.45
2023-03-29T11:13:47.065Z,2.67
2023-03-29T11:15:25.292Z,2.15
2023-03-29T11:16:55.056Z,2.03
2023-03-29T11:18:44.439Z,2.10
2023-03-29T11:20:19.716Z,1.98
2023-03-29T11:21:51.118Z,2.15
2023-03-29T11:23:24.024Z,2.30
2023-03-29T11:24:59.089Z,2.20
2023-03-29T11:26:25.170Z,2.53
2023-03-29T11:27:54.875Z,2.42
2023-03-29T11:29:23.368Z,2.25
2023-03-29T11:30:52.066Z,3.00
2023-03-29T11:32:19.406Z,3.53
2023-03-29T11:33:56.601Z,4.25
2023-03-29T11:35:35.430Z,3.05
2023-03-29T11:37:04.426Z,3.20
2023-03-29T11:38:33.599Z,2.65
2023-03-29T11:40:10.023Z,2.45
2023-03-29T11:41:35.501Z,2.22
2023-03-29T11:43:00.318Z,3.35
2023-03-29T11:44:28.047Z,1.90
2023-03-29T11:45:55.179Z,2.75
2023-03-29T11:47:20.525Z,2.33
2023-03-29T11:48:48.609Z,2.92
2023-03-29T11:50:18.933Z,3.00
2023-03-29T11:51:45.968Z,2.72
2023-03-29T11:53:14.463Z,2.97
2023-03-29T11:54:41.408Z,2.75
2023-03-29T11:56:10.212Z,2.70
2023-03-29T11:57:37.694Z,3.40
2023-03-29T11:59:07.383Z,2.92
2023-03-29T12:00:32.770Z,3.40
2023-03-29T12:02:01.408Z,4.63
2023-03-29T12:03:37.761Z,2.60
2023-03-29T12:05:03.756Z,2.58
2023-03-29T12:06:30.999Z,3.25
2023-03-29T12:07:57.771Z,2.90
2023-03-29T12:09:33.435Z,3.15
2023-03-29T12:11:01.093Z,2.28
2023-03-29T12:12:28.106Z,2.20
2023-03-29T12:13:55.117Z,2.58
2023-03-29T12:15:21.612Z,2.53
2023-03-29T12:16:47.155Z,2.20
2023-03-29T12:18:19.020Z,2.20
2023-03-29T12:19:44.432Z,3.03
2023-03-29T12:21:13.899Z,3.28
2023-03-29T12:22:38.802Z,3.10
2023-03-29T12:24:02.315Z,3.47
2023-03-29T12:25:30.062Z,3.33
2023-03-29T12:27:17.204Z,3.00
2023-03-29T12:28:57.466Z,2.53
2023-03-29T12:30:38.305Z,3.22
2023-03-29T12:32:09.281Z,2.65
2023-03-29T12:34:10.505Z,2.75
2023-03-29T12:35:41.022Z,2.55
2023-03-29T12:37:23.803Z,3.33
2023-03-29T12:38:48.151Z,2.83
2023-03-29T12:40:17.274Z,2.75
2023-03-29T12:41:45.538Z,2.88
2023-03-29T12:43:10.313Z,2.53
2023-03-29T12:44:34.009Z,2.78
2023-03-29T12:45:59.303Z,2.60
2023-03-29T12:47:25.264Z,2.83
2023-03-29T12:48:52.239Z,3.20
2023-03-29T12:50:32.753Z,3.08
2023-03-29T12:51:57.487Z,2.67
2023-03-29T12:53:25.279Z,2.72
2023-03-29T12:54:56.404Z,4.53
2023-03-29T12:56:26.253Z,2.97
2023-03-29T12:58:02.897Z,3.40
2023-03-29T12:59:35.066Z,2.90
2023-03-29T13:01:06.334Z,2.67
2023-03-29T13:02:52.414Z,3.22
2023-03-29T13:04:18.893Z,2.08
2023-03-29T13:05:42.551Z,2.30
2023-03-29T13:07:07.165Z,2.65
2023-03-29T13:08:36.453Z,2.88
2023-03-29T13:10:01.532Z,3.55
2023-03-29T13:11:32.674Z,2.90
2023-03-29T13:12:56.266Z,2.75
2023-03-29T13:14:22.628Z,2.40
2023-03-29T13:15:46.711Z,3.00
2023-03-29T13:17:18.792Z,2.75
2023-03-29T13:18:55.894Z,2.75
2023-03-29T13:20:31.437Z,2.55
2023-03-29T13:22:06.042Z,2.65
2023-03-29T13:23:40.222Z,2.80
2023-03-29T13:25:15.542Z,4.75
2023-03-29T13:27:00.931Z,3.83
2023-03-29T13:28:28.455Z,3.15
2023-03-29T13:30:05.752Z,2.97
2023-03-29T13:31:36.048Z,3.00
2023-03-29T13:33:24.183Z,2.85
2023-03-29T13:34:51.524Z,2.60
2023-03-29T13:36:21.246Z,2.67
2023-03-29T13:37:56.728Z,2.75
2023-03-29T13:39:23.148Z,2.58
2023-03-29T13:41:00.372Z,2.83
2023-03-29T13:42:27.737Z,2.70
2023-03-29T13:43:54.118Z,2.97
2023-03-29T13:45:27.305Z,2.88
2023-03-29T13:47:03.740Z,2.97
2023-03-29T13:48:28.853Z,2.42
2023-03-29T13:49:56.321Z,2.30
2023-03-29T13:51:33.315Z,2.28
2023-03-29T13:53:04.690Z,2.00
2023-03-29T13:54:32.175Z,2.85
2023-03-29T13:55:56.143Z,2.33
2023-03-29T13:57:50.969Z,2.63
2023-03-29T13:59:18.825Z,3.17
2023-03-29T14:00:47.252Z,2.75
2023-03-29T14:02:26.616Z,3.17
2023-03-29T14:03:51.561Z,2.65
2023-03-29T14:05:18.448Z,3.35
2023-03-29T14:06:43.732Z,3.45
2023-03-29T14:08:11.082Z,3.50
2023-03-29T14:09:37.037Z,2.88
2023-03-29T14:11:03.106Z,2.78
2023-03-29T14:12:31.561Z,3.65
2023-03-29T14:13:55.555Z,3.95
2023-03-29T14:15:24.669Z,2.88
2023-03-29T14:16:49.564Z,3.13
2023-03-29T14:18:13.637Z,2.15
2023-03-29T14:19:38.571Z,3.03
2023-03-29T14:21:02.707Z,2.83
2023-03-29T14:22:30.248Z,2.35
2023-03-29T14:23:57.065Z,4.25
2023-03-29T14:25:22.596Z,3.25
2023-03-29T14:26:48.101Z,3.10
2023-03-29T14:28:22.591Z,2.70
2023-03-29T14:29:47.610Z,3.22
2023-03-29T14:31:19.139Z,2.67
2023-03-29T14:32:43.950Z,3.03
2023-03-29T14:34:11.696Z,2.80
2023-03-29T14:35:35.196Z,2.95
2023-03-29T14:36:59.803Z,2.58
2023-03-29T14:38:24.153Z,2.53
2023-03-29T14:39:47.554Z,3.03
2023-03-29T14:41:10.963Z,2.80
2023-03-29T14:42:34.347Z,3.00
2023-03-29T14:43:57.938Z,2.65
2023-03-29T14:45:26.058Z,3.22
2023-03-29T14:46:49.507Z,3.55
2023-03-29T14:48:15.199Z,2.90
2023-03-29T14:49:38.778Z,2.85
2023-03-29T14:51:03.396Z,3.42
2023-03-29T14:52:27.543Z,3.42
2023-03-29T14:53:51.089Z,2.85
2023-03-29T14:55:14.592Z,3.47
2023-03-29T14:56:38.322Z,2.67
2023-03-29T14:58:02.621Z,3.08
2023-03-29T14:59:29.427Z,2.97
2023-03-29T15:00:54.174Z,2.85
2023-03-29T15:02:24.161Z,3.65
2023-03-29T15:03:56.214Z,3.33
2023-03-29T15:05:41.002Z,3.53
2023-03-29T15:07:05.170Z,3.05
2023-03-29T15:08:32.289Z,3.47
2023-03-29T15:09:56.423Z,3.00
2023-03-29T15:11:21.779Z,3.80
2023-03-29T15:12:46.213Z,3.47
2023-03-29T15:14:13.407Z,2.63
2023-03-29T15:15:39.107Z,3.20
2023-03-29T15:17:04.180Z,3.45
2023-03-29T15:18:31.498Z,3.58
2023-03-29T15:20:00.779Z,3.78
2023-03-29T15:21:24.524Z,3.80
2023-03-29T15:22:57.591Z,3.50
2023-03-29T15:24:24.010Z,2.85
2023-03-29T15:25:49.901Z,3.80
2023-03-29T15:27:16.091Z,3.70
2023-03-29T15:28:47.779Z,3.20
2023-03-29T15:30:15.139Z,3.47
2023-03-29T15:31:39.876Z,3.25
2023-03-29T15:33:22.935Z,4.70
2023-03-29T15:34:47.364Z,3.50
2023-03-29T15:36:13.998Z,3.35
2023-03-29T15:37:37.709Z,4.00
2023-03-29T15:39:01.531Z,3.88
2023-03-29T15:40:28.118Z,3.38
2023-03-29T15:41:53.289Z,3.80
2023-03-29T15:43:16.739Z,3.85
2023-03-29T15:44:41.206Z,3.88
2023-03-29T15:46:05.034Z,4.15
2023-03-29T15:47:28.767Z,3.45
2023-03-29T15:48:52.283Z,3.65
2023-03-29T15:50:16.039Z,3.72
2023-03-29T15:51:41.310Z,3.90
2023-03-29T15:53:14.745Z,3.80
2023-03-29T15:54:40.110Z,3.75
2023-03-29T15:56:05.438Z,3.67
2023-03-29T15:57:29.113Z,3.33
2023-03-29T15:58:52.565Z,3.40
2023-03-29T16:00:18.824Z,3.47
2023-03-29T16:01:42.576Z,3.80
2023-03-29T16:03:06.918Z,3.30
2023-03-29T16:04:30.511Z,3.92
2023-03-29T16:05:56.681Z,3.60
2023-03-29T16:07:21.891Z,4.78
2023-03-29T16:08:46.018Z,3.47
2023-03-29T16:10:10.153Z,3.72
2023-03-29T16:11:33.891Z,3.15
2023-03-29T16:12:57.418Z,3.80
2023-03-29T16:14:25.101Z,3.92
2023-03-29T16:15:48.817Z,3.50
2023-03-29T16:17:12.362Z,3.80
2023-03-29T16:18:36.233Z,3.90
2023-03-29T16:19:59.829Z,3.35
2023-03-29T16:21:24.393Z,3.95
2023-03-29T16:22:51.356Z,3.55
2023-03-29T16:24:16.878Z,3.30
2023-03-29T16:25:41.693Z,3.72
2023-03-29T16:27:05.518Z,3.30
2023-03-29T16:28:29.219Z,3.22
2023-03-29T16:29:52.624Z,3.97
2023-03-29T16:31:16.355Z,3.70
2023-03-29T16:32:39.894Z,3.45
2023-03-29T16:34:03.365Z,3.58
2023-03-29T16:35:28.719Z,3.92
2023-03-29T16:36:52.917Z,3.95
2023-03-29T16:38:17.818Z,3.92
2023-03-29T16:39:41.448Z,3.42
2023-03-29T16:41:05.039Z,3.53
2023-03-29T16:42:28.401Z,3.67
2023-03-29T16:43:51.953Z,3.83
2023-03-29T16:45:16.897Z,3.70
2023-03-29T16:46:40.442Z,3.67
2023-03-29T16:48:05.023Z,3.65
2023-03-29T16:49:28.565Z,3.65
2023-03-29T16:50:52.702Z,3.80
2023-03-29T16:52:16.121Z,3.67
2023-03-29T16:53:41.941Z,3.92
2023-03-29T16:55:05.622Z,3.70
2023-03-29T16:56:29.692Z,3.67
2023-03-29T16:57:54.234Z,3.83
2023-03-29T16:59:17.733Z,4.50
2023-03-29T17:00:41.390Z,3.45
2023-03-29T17:02:05.730Z,4.25
2023-03-29T17:03:29.106Z,3.65
2023-03-29T17:04:52.959Z,3.55
2023-03-29T17:06:16.790Z,3.92
2023-03-29T17:07:40.644Z,4.07
2023-03-29T17:09:06.179Z,3.67
2023-03-29T17:10:29.633Z,3.97
2023-03-29T17:11:53.223Z,3.35
2023-03-29T17:13:16.785Z,3.53
2023-03-29T17:14:41.814Z,3.65
2023-03-29T17:16:05.928Z,4.18
2023-03-29T17:17:29.909Z,3.50
2023-03-29T17:18:54.144Z,3.53
2023-03-29T17:20:17.812Z,3.38
2023-03-29T17:21:41.227Z,3.67
2023-03-29T17:23:04.599Z,4.32
2023-03-29T17:24:29.352Z,3.60
2023-03-29T17:25:53.659Z,3.58
2023-03-29T17:27:17.159Z,3.20
2023-03-29T17:28:41.237Z,3.25
2023-03-29T17:30:04.898Z,3.20
2023-03-29T17:31:28.339Z,3.45
2023-03-29T17:32:52.191Z,3.70
2023-03-29T17:34:15.839Z,4.25
2023-03-29T17:35:40.091Z,4.30
2023-03-29T17:37:03.696Z,3.97
2023-03-29T17:38:28.800Z,3.65
2023-03-29T17:39:53.558Z,4.20
2023-03-29T17:41:18.738Z,3.92
2023-03-29T17:42:42.222Z,3.65
2023-03-29T17:44:05.738Z,3.55
2023-03-29T17:45:29.141Z,3.25
2023-03-29T17:46:52.667Z,3.78
2023-03-29T17:48:16.147Z,4.05
2023-03-29T17:49:39.575Z,7.78
2023-03-29T17:51:03.003Z,4.53
2023-03-29T17:52:28.375Z,4.15
2023-03-29T17:53:52.514Z,3.70
2023-03-29T17:55:17.943Z,3.85
2023-03-29T17:56:41.462Z,5.18
2023-03-29T17:58:06.331Z,3.67
2023-03-29T17:59:29.757Z,3.75
2023-03-29T18:00:53.204Z,3.47
2023-03-29T18:02:18.821Z,3.15
2023-03-29T18:03:42.584Z,3.85
2023-03-29T18:05:06.488Z,3.83
2023-03-29T18:06:29.955Z,3.90
2023-03-29T18:07:53.409Z,3.75
2023-03-29T18:09:18.447Z,3.90
2023-03-29T18:10:43.288Z,4.60
2023-03-29T18:12:07.453Z,4.13
2023-03-29T18:13:30.935Z,3.67
2023-03-29T18:14:56.524Z,4.40
2023-03-29T18:16:20.599Z,3.80
2023-03-29T18:17:44.638Z,4.07
2023-03-29T18:19:08.065Z,4.28
2023-03-29T18:20:31.627Z,4.20
2023-03-29T18:21:55.133Z,4.72
2023-03-29T18:23:18.572Z,4.03
2023-03-29T18:24:42.013Z,4.15
2023-03-29T18:26:07.501Z,4.13
2023-03-29T18:27:29.887Z,4.68
2023-03-29T18:28:53.332Z,4.30
2023-03-29T18:30:17.253Z,4.05
2023-03-29T18:31:41.173Z,3.60
2023-03-29T18:33:04.765Z,4.07
2023-03-29T18:34:28.377Z,4.80
2023-03-29T18:35:52.460Z,4.30
2023-03-29T18:37:17.477Z,4.13
2023-03-29T18:38:43.026Z,4.18
2023-03-29T18:40:09.323Z,3.80
2023-03-29T18:41:34.801Z,4.55
2023-03-29T18:42:58.255Z,4.70
2023-03-29T18:44:22.901Z,4.32
2023-03-29T18:45:47.439Z,4.30
2023-03-29T18:47:11.065Z,4.25
2023-03-29T18:48:38.618Z,3.95
2023-03-29T18:50:02.769Z,4.13
2023-03-29T18:51:28.039Z,4.43
2023-03-29T18:52:52.202Z,4.28
2023-03-29T18:54:17.229Z,4.53
2023-03-29T18:55:42.620Z,4.18
2023-03-29T18:57:07.550Z,3.63
2023-03-29T18:58:31.167Z,3.60
2023-03-29T18:59:55.800Z,4.32
2023-03-29T19:01:18.284Z,3.75
2023-03-29T19:02:42.085Z,4.13
2023-03-29T19:04:05.632Z,4.55
2023-03-29T19:05:29.292Z,4.40
2023-03-29T19:06:53.694Z,4.38